Time;durP1;ratioP1;P1;durP2;ratioP2;P2;SDS_P1;SDS_P2;PMS_P1;PMS_P2;Temp;Humidity;BMP_temperature;BMP_pressure;BME280_temperature;BME280_humidity;BME280_pressure;Samples;Min_cycle;Max_cycle;Signal;HPM_P1;HPM_P2
2022/07/01 17:09:05;;;;;;;7.28;2.80;;;;;;;28.88;30.84;101943.91;5069080;28;20782;-66
2022/07/01 17:11:33;;;;;;;9.43;3.00;;;;;;;28.73;31.00;101950.00;5069360;28;20540;-68
2022/07/01 17:13:58;;;;;;;6.95;2.75;;;;;;;28.57;30.74;101943.50;5069150;28;20376;-67
2022/07/01 17:16:24;;;;;;;4.32;2.78;;;;;;;28.62;30.32;101946.31;5069507;28;20039;-66
2022/07/01 17:18:53;;;;;;;5.57;2.80;;;;;;;28.74;29.67;101939.88;5069048;28;20025;-66
2022/07/01 17:21:24;;;;;;;12.68;3.30;;;;;;;28.93;29.67;101950.28;5069676;28;20048;-65
2022/07/01 17:23:52;;;;;;;10.35;2.88;;;;;;;28.87;30.26;101965.00;5068594;28;20486;-66
2022/07/01 17:26:20;;;;;;;3.92;2.75;;;;;;;28.37;28.75;101945.97;5069442;28;20433;-66
2022/07/01 17:29:01;;;;;;;14.45;5.95;;;;;;;28.16;30.09;101965.91;5069518;28;20072;-67
2022/07/01 17:31:34;;;;;;;10.30;6.18;;;;;;;27.85;29.54;101942.69;5069534;28;20041;-66
2022/07/01 17:34:04;;;;;;;26.17;4.28;;;;;;;27.77;29.37;101963.09;5069110;28;20032;-68
2022/07/01 17:36:33;;;;;;;19.80;3.85;;;;;;;27.53;28.96;101954.16;5068838;28;20085;-66
2022/07/01 17:39:05;;;;;;;9.40;2.72;;;;;;;27.38;29.33;101957.44;5068879;28;20091;-67
2022/07/01 17:41:42;;;;;;;14.60;2.78;;;;;;;27.17;29.97;101955.38;5067724;28;20037;-65
2022/07/01 17:44:09;;;;;;;3.83;1.83;;;;;;;27.13;30.21;101963.25;5069029;28;20056;-68
2022/07/01 17:46:37;;;;;;;23.30;5.00;;;;;;;26.35;31.50;101856.44;5068785;28;20263;-67
2022/07/01 17:49:04;;;;;;;9.80;2.88;;;;;;;26.78;31.75;101946.94;5070671;28;20045;-67
2022/07/01 17:51:30;;;;;;;12.33;3.33;;;;;;;26.60;32.48;101941.66;5069059;28;20036;-67
2022/07/01 17:53:57;;;;;;;13.55;6.18;;;;;;;26.62;33.29;101968.75;5068870;28;20411;-67
2022/07/01 17:56:24;;;;;;;14.63;5.18;;;;;;;26.42;34.08;101947.25;5069144;28;20491;-67
2022/07/01 17:58:51;;;;;;;4.75;3.15;;;;;;;26.37;33.67;101958.09;5069303;28;20119;-68
2022/07/01 18:01:19;;;;;;;9.55;4.57;;;;;;;26.21;34.72;101952.22;5068508;28;20040;-68
2022/07/01 18:03:45;;;;;;;6.22;3.00;;;;;;;26.18;34.26;101952.69;5070266;28;20482;-67
2022/07/01 18:06:11;;;;;;;9.75;3.30;;;;;;;26.11;34.66;101954.72;5068991;28;20033;-67
2022/07/01 18:08:38;;;;;;;7.82;4.18;;;;;;;25.89;35.39;101938.09;5068270;28;20119;-67
2022/07/01 18:11:14;;;;;;;6.13;3.58;;;;;;;25.95;35.38;101949.94;5068227;28;20079;-69
2022/07/01 18:14:08;;;;;;;7.35;3.10;;;;;;;25.88;35.65;101951.97;5067327;28;20049;-67
2022/07/01 18:16:52;;;;;;;5.75;3.47;;;;;;;25.73;36.07;101938.75;5068824;28;20044;-69
2022/07/01 18:19:55;;;;;;;6.53;4.03;;;;;;;25.73;36.88;101949.69;5060860;28;20041;-67
2022/07/01 18:22:42;;;;;;;8.45;5.68;;;;;;;25.61;37.36;101952.38;5055209;28;20131;-68
2022/07/01 18:25:11;;;;;;;6.68;3.63;;;;;;;25.53;37.32;101954.59;5055198;28;20553;-68
2022/07/01 18:27:39;;;;;;;19.98;16.33;;;;;;;25.37;37.69;101958.81;5055320;28;20045;-67
2022/07/01 18:30:07;;;;;;;;;;;;;;;25.38;38.47;101962.38;5055527;28;20119;-66
2022/07/01 18:32:36;;;;;;;7.28;4.30;;;;;;;25.10;38.26;101947.44;5055450;28;19970;-67
2022/07/01 18:35:04;;;;;;;7.18;3.85;;;;;;;25.06;37.28;101953.59;5055499;28;20094;-66
2022/07/01 18:37:35;;;;;;;10.73;5.50;;;;;;;25.07;37.78;101961.53;5055178;28;20048;-70
2022/07/01 18:40:01;;;;;;;6.88;3.45;;;;;;;24.93;38.00;101954.56;5054690;28;20106;-68
2022/07/01 18:42:28;;;;;;;8.30;4.13;;;;;;;24.91;38.14;101968.44;5053507;28;20124;-68
2022/07/01 18:44:53;;;;;;;13.80;5.47;;;;;;;24.81;38.69;101968.13;5054394;28;20086;-68
2022/07/01 18:47:19;;;;;;;7.88;5.15;;;;;;;24.70;39.32;101975.16;5054589;28;20036;-69
2022/07/01 18:49:44;;;;;;;6.53;3.70;;;;;;;24.62;38.95;101975.47;5054834;28;20033;-70
2022/07/01 18:52:10;;;;;;;12.23;4.90;;;;;;;24.51;40.28;101978.09;5054738;28;20037;-69
2022/07/01 18:54:35;;;;;;;9.82;3.80;;;;;;;24.21;40.21;101946.09;5053334;28;20036;-67
2022/07/01 18:57:01;;;;;;;11.07;4.45;;;;;;;24.31;40.97;101978.31;5054581;28;20071;-69
2022/07/01 18:59:26;;;;;;;18.02;5.35;;;;;;;24.08;41.68;101959.84;5054425;28;20033;-69
2022/07/01 19:01:52;;;;;;;9.18;4.07;;;;;;;24.20;39.33;101976.28;5053347;28;20029;-67
2022/07/01 19:04:17;;;;;;;6.65;4.28;;;;;;;24.23;39.37;101975.81;5054371;28;20044;-67
2022/07/01 19:06:44;;;;;;;9.30;4.55;;;;;;;24.21;39.71;101975.22;5052646;28;20407;-66
2022/07/01 19:09:09;;;;;;;13.18;4.50;;;;;;;24.17;39.01;101972.13;5054583;28;20041;-69
2022/07/01 19:11:35;;;;;;;9.38;4.22;;;;;;;24.24;39.63;101991.94;5054642;28;20037;-68
2022/07/01 19:14:02;;;;;;;13.48;5.60;;;;;;;24.01;40.26;101956.38;5053808;28;20044;-67
2022/07/01 19:16:28;;;;;;;9.93;4.22;;;;;;;23.97;39.49;101955.13;5053914;28;20044;-67
2022/07/01 19:18:53;;;;;;;10.70;4.68;;;;;;;24.09;40.29;101986.00;5054287;28;20033;-68
2022/07/01 19:21:18;;;;;;;11.88;6.60;;;;;;;24.03;40.69;101984.19;5053905;28;20033;-67
2022/07/01 19:23:44;;;;;;;14.73;4.68;;;;;;;23.96;40.94;101981.50;5053750;28;20029;-66
2022/07/01 19:26:09;;;;;;;6.97;4.10;;;;;;;23.87;40.79;101987.44;5054070;28;20043;-67
2022/07/01 19:28:35;;;;;;;15.88;5.70;;;;;;;23.82;41.58;101998.16;5052611;28;20041;-67
2022/07/01 19:31:00;;;;;;;10.88;4.68;;;;;;;23.72;41.17;102002.22;5053066;28;20037;-69
2022/07/01 19:33:26;;;;;;;12.50;5.90;;;;;;;23.45;42.30;101974.31;5053930;28;20024;-68
2022/07/01 19:35:51;;;;;;;5.28;3.70;;;;;;;23.52;41.52;102001.47;5053735;28;20029;-68
2022/07/01 19:38:17;;;;;;;9.65;5.55;;;;;;;23.48;42.52;102005.66;5053856;28;20025;-66
2022/07/01 19:40:42;;;;;;;11.57;4.75;;;;;;;23.38;43.28;101997.13;5054219;28;20048;-67
2022/07/01 19:43:08;;;;;;;8.68;5.18;;;;;;;23.26;42.28;101979.84;5056813;28;20040;-67
2022/07/01 19:45:33;;;;;;;12.35;4.68;;;;;;;23.31;42.68;101994.47;5053442;28;20032;-68
2022/07/01 19:47:59;;;;;;;16.13;5.55;;;;;;;23.29;42.84;101984.84;5054131;28;20040;-70
2022/07/01 19:50:24;;;;;;;8.32;4.35;;;;;;;23.40;42.79;102003.19;5056248;28;20457;-67
2022/07/01 19:52:49;;;;;;;7.20;4.20;;;;;;;23.25;42.95;101972.75;5055927;28;20047;-70
2022/07/01 19:55:15;;;;;;;11.50;7.20;;;;;;;23.36;43.89;102010.13;5055716;28;20483;-67
2022/07/01 19:57:40;;;;;;;23.20;6.53;;;;;;;23.21;44.44;101998.72;5054845;28;20890;-68
2022/07/01 20:00:07;;;;;;;13.70;5.85;;;;;;;23.11;44.99;102010.00;5053414;28;20025;-67
2022/07/01 20:02:32;;;;;;;10.43;7.35;;;;;;;22.91;45.37;101985.66;5053306;28;20037;-68
2022/07/01 20:04:59;;;;;;;19.10;11.90;;;;;;;22.90;45.77;101991.31;5051805;28;20059;-68
2022/07/01 20:07:26;;;;;;;12.32;5.65;;;;;;;22.84;45.80;102003.84;5052525;28;20060;-70
2022/07/01 20:09:52;;;;;;;14.82;8.48;;;;;;;22.68;46.36;101988.00;5052694;28;20080;-70
2022/07/01 20:12:21;;;;;;;12.13;6.30;;;;;;;22.70;46.13;101992.16;5052835;28;20412;-70
2022/07/01 20:14:50;;;;;;;7.72;5.07;;;;;;;22.81;45.25;102004.28;5053092;28;20041;-69
2022/07/01 20:17:16;;;;;;;7.25;5.20;;;;;;;22.81;45.81;101993.41;5053092;28;20040;-68
2022/07/01 20:19:41;;;;;;;8.43;6.32;;;;;;;22.71;46.18;101982.13;5052942;28;20377;-65
2022/07/01 20:22:09;;;;;;;6.57;4.10;;;;;;;22.75;45.43;101996.94;5052833;28;20048;-67
2022/07/01 20:24:34;;;;;;;6.32;5.20;;;;;;;22.74;45.50;102006.16;5052560;28;20114;-69
2022/07/01 20:27:00;;;;;;;9.68;4.82;;;;;;;22.63;45.63;101991.34;5053125;28;20091;-67
2022/07/01 20:29:27;;;;;;;9.00;5.70;;;;;;;22.74;46.21;102008.84;5055154;28;20079;-68
2022/07/01 20:31:52;;;;;;;13.35;5.50;;;;;;;22.72;46.16;102010.97;5056777;28;20041;-67
2022/07/01 20:34:18;;;;;;;9.50;5.82;;;;;;;22.65;46.74;102004.72;5058875;28;20029;-68
2022/07/01 20:36:43;;;;;;;5.88;5.28;;;;;;;22.49;46.87;101985.09;5058436;28;20041;-69
2022/07/01 20:39:10;;;;;;;6.85;4.40;;;;;;;22.47;46.65;101992.63;5056637;28;20033;-67
2022/07/01 20:41:35;;;;;;;11.48;5.15;;;;;;;22.53;47.49;102005.34;5053565;28;20491;-68
2022/07/01 20:44:01;;;;;;;6.30;4.85;;;;;;;22.41;47.38;101992.63;5051198;28;20115;-68
2022/07/01 20:46:27;;;;;;;9.77;4.13;;;;;;;22.50;47.42;102008.47;5052270;28;20130;-67
2022/07/01 20:48:52;;;;;;;13.18;8.18;;;;;;;22.44;48.18;102006.63;5052168;28;20040;-68
2022/07/01 20:51:18;;;;;;;7.47;4.78;;;;;;;22.36;47.79;102009.56;5052341;28;20064;-68
2022/07/01 20:53:43;;;;;;;10.20;5.32;;;;;;;22.44;47.60;101998.47;5052268;28;20041;-70
2022/07/01 20:56:09;;;;;;;5.78;3.75;;;;;;;22.51;47.45;102014.75;5050927;28;20479;-69
2022/07/01 20:58:34;;;;;;;5.95;4.80;;;;;;;22.49;47.50;102011.41;5052694;28;20033;-68
2022/07/01 21:01:00;;;;;;;5.82;4.20;;;;;;;22.21;48.00;101981.78;5052188;28;20132;-66
2022/07/01 21:03:25;;;;;;;6.47;4.35;;;;;;;22.40;48.12;102018.94;5051890;28;20029;-66
2022/07/01 21:05:51;;;;;;;6.05;4.93;;;;;;;22.25;48.03;101993.91;5052114;28;20049;-70
2022/07/01 21:08:19;;;;;;;6.35;4.93;;;;;;;22.35;48.50;102015.19;5051856;28;20144;-73
2022/07/01 21:10:46;;;;;;;13.97;4.00;;;;;;;22.16;48.59;101996.00;5052409;28;20045;-70
2022/07/01 21:13:11;;;;;;;7.25;4.75;;;;;;;22.27;48.66;102018.97;5052206;28;20282;-66
2022/07/01 21:15:40;;;;;;;5.55;4.45;;;;;;;22.18;48.76;102014.78;5050844;28;20507;-67
2022/07/01 21:18:06;;;;;;;8.70;4.95;;;;;;;22.15;49.02;102010.59;5052112;28;20476;-70
2022/07/01 21:20:31;;;;;;;7.72;4.50;;;;;;;22.13;48.98;102014.56;5051933;28;20031;-68
2022/07/01 21:22:59;;;;;;;8.45;5.15;;;;;;;22.05;49.63;102004.78;5052027;28;20032;-65
2022/07/01 21:25:27;;;;;;;12.20;5.53;;;;;;;21.78;50.10;101965.91;5052053;28;20040;-69
2022/07/01 21:27:52;;;;;;;11.20;5.18;;;;;;;22.09;49.83;102021.47;5051727;28;20040;-71
2022/07/01 21:30:18;;;;;;;8.32;4.47;;;;;;;22.11;50.16;102019.38;5052047;28;20032;-70
2022/07/01 21:32:44;;;;;;;13.00;4.93;;;;;;;22.01;50.09;102008.09;5050651;28;20037;-70
2022/07/01 21:35:10;;;;;;;9.13;4.72;;;;;;;22.16;50.19;102027.72;5051788;28;20119;-67
2022/07/01 21:37:36;;;;;;;10.05;5.03;;;;;;;22.04;50.26;102010.41;5051735;28;20492;-69
2022/07/01 21:40:04;;;;;;;11.18;5.60;;;;;;;21.94;50.44;102008.88;5051977;28;20033;-68
2022/07/01 21:42:30;;;;;;;10.43;6.18;;;;;;;21.97;50.73;102021.19;5052361;28;20456;-70
2022/07/01 21:44:56;;;;;;;11.05;6.22;;;;;;;22.00;51.06;102034.38;5052870;28;20068;-70
2022/07/01 21:47:22;;;;;;;12.05;5.45;;;;;;;21.94;51.13;102025.16;5054389;28;20044;-65
2022/07/01 21:49:50;;;;;;;9.48;5.45;;;;;;;21.60;51.73;101992.78;5061659;28;20037;-67
2022/07/01 21:52:18;;;;;;;7.32;5.07;;;;;;;21.85;52.51;102047.28;5060535;28;20145;-66
2022/07/01 21:54:44;;;;;;;11.50;4.90;;;;;;;21.69;52.40;102026.81;5056265;28;20044;-70
2022/07/01 21:57:14;;;;;;;7.78;5.50;;;;;;;21.61;52.81;102018.84;5056037;28;20033;-68
2022/07/01 21:59:43;;;;;;;12.10;5.38;;;;;;;21.62;53.20;102028.66;5055524;28;20040;-68
2022/07/01 22:02:08;;;;;;;6.15;4.70;;;;;;;21.44;53.47;102001.31;5055443;28;20045;-70
2022/07/01 22:04:40;;;;;;;9.70;5.50;;;;;;;21.55;53.97;102038.66;5055148;28;20581;-67
2022/07/01 22:07:08;;;;;;;7.65;5.05;;;;;;;21.44;54.71;102028.41;5054823;28;20523;-72
2022/07/01 22:09:35;;;;;;;7.80;5.50;;;;;;;21.38;54.80;102029.19;5055143;28;20041;-70
2022/07/01 22:12:03;;;;;;;6.22;4.82;;;;;;;21.41;55.21;102039.66;5055128;28;20438;-69
2022/07/01 22:14:43;;;;;;;10.70;5.03;;;;;;;21.30;54.92;102028.34;5054990;28;20515;-68
2022/07/01 22:17:13;;;;;;;7.72;5.38;;;;;;;21.34;55.59;102043.16;5054845;28;20080;-67
2022/07/01 22:19:42;;;;;;;8.82;5.22;;;;;;;21.25;55.93;102038.97;5053775;28;20076;-66
2022/07/01 22:22:08;;;;;;;11.50;5.53;;;;;;;21.28;56.03;102049.41;5055280;28;20037;-68
2022/07/01 22:24:37;;;;;;;9.80;6.00;;;;;;;21.30;56.30;102058.16;5054977;28;20032;-66
2022/07/01 22:27:04;;;;;;;7.15;5.63;;;;;;;21.19;57.05;102050.59;5054490;28;20117;-65
2022/07/01 22:29:31;;;;;;;15.57;6.75;;;;;;;20.80;56.89;101988.91;5054704;28;20071;-67
2022/07/01 22:31:56;;;;;;;7.13;6.18;;;;;;;21.10;57.45;102054.47;5054932;28;20535;-68
2022/07/01 22:34:25;;;;;;;9.93;6.20;;;;;;;21.15;57.62;102068.28;5053122;28;20040;-67
2022/07/01 22:36:50;;;;;;;;;;;;;;;21.15;56.20;102071.00;5053802;28;20068;-68
2022/07/01 22:39:16;;;;;;;12.90;6.57;;;;;;;20.97;57.92;102046.28;5054659;28;19986;-70
2022/07/01 22:41:45;;;;;;;6.47;5.88;;;;;;;21.06;58.40;102058.63;5054649;28;20040;-68
2022/07/01 22:44:14;;;;;;;7.65;6.50;;;;;;;21.02;58.52;102068.19;5054922;28;20044;-65
2022/07/01 22:47:05;;;;;;;10.43;5.80;;;;;;;21.00;58.26;102073.81;5054883;28;20123;-67
2022/07/01 22:50:05;;;;;;;11.02;6.50;;;;;;;20.92;58.46;102065.03;5055148;28;20190;-68
2022/07/01 22:53:05;;;;;;;7.35;5.72;;;;;;;20.91;59.16;102076.88;5037730;28;20495;-68
2022/07/01 22:55:40;;;;;;;8.57;6.18;;;;;;;20.88;59.26;102075.41;5054423;28;20053;-66
2022/07/01 22:58:15;;;;;;;9.50;6.15;;;;;;;20.73;59.77;102058.44;5036618;28;20037;-65
2022/07/01 23:00:47;;;;;;;12.20;6.60;;;;;;;20.81;59.83;102070.97;5054304;28;20033;-69
2022/07/01 23:03:15;;;;;;;10.15;6.97;;;;;;;20.80;59.97;102074.72;5054261;28;20040;-66
2022/07/01 23:05:51;;;;;;;11.77;7.55;;;;;;;20.81;60.05;102079.09;5054135;28;20123;-65
2022/07/01 23:08:30;;;;;;;14.27;6.93;;;;;;;20.70;59.74;102065.09;5053784;28;20057;-65
2022/07/01 23:10:56;;;;;;;9.10;6.50;;;;;;;20.80;60.22;102080.13;5054138;28;20044;-66
2022/07/01 23:13:28;;;;;;;11.30;6.13;;;;;;;20.75;60.32;102082.59;5053698;28;20033;-68
2022/07/01 23:18:41;;;;;;;13.57;6.50;;;;;;;20.61;61.29;102082.50;5053557;28;20041;-69
2022/07/01 23:21:07;;;;;;;14.90;7.63;;;;;;;20.60;61.56;102091.66;5052510;28;20041;-67
2022/07/01 23:23:33;;;;;;;11.27;7.25;;;;;;;20.56;61.19;102084.97;5053691;28;20059;-65
2022/07/01 23:26:02;;;;;;;8.25;6.25;;;;;;;20.39;61.56;102067.31;5053427;28;20068;-66
2022/07/01 23:28:30;;;;;;;11.13;6.70;;;;;;;20.47;61.97;102083.44;5053545;28;20036;-67
2022/07/01 23:30:56;;;;;;;12.85;9.45;;;;;;;20.43;62.13;102082.16;5052418;28;20435;-65
2022/07/01 23:33:22;;;;;;;14.80;10.00;;;;;;;20.39;61.96;102078.13;5053536;28;20098;-66
2022/07/01 23:35:53;;;;;;;13.88;7.38;;;;;;;20.43;62.31;102090.28;5053468;28;20036;-65
2022/07/01 23:38:19;;;;;;;10.18;7.07;;;;;;;20.33;62.70;102076.22;5053405;28;20079;-66
2022/07/01 23:41:14;;;;;;;12.27;7.45;;;;;;;20.34;62.80;102080.59;5053298;28;20479;-69
2022/07/01 23:43:34;;;;;;;18.25;7.50;;;;;;;20.29;63.22;102072.22;5053335;28;20559;-65
2022/07/01 23:46:00;;;;;;;13.73;9.35;;;;;;;20.24;63.47;102064.72;5053515;28;20036;-66
2022/07/01 23:48:25;;;;;;;14.43;6.95;;;;;;;20.20;63.65;102070.66;5051928;28;20048;-66
2022/07/01 23:50:51;;;;;;;22.15;9.43;;;;;;;20.03;63.75;102043.91;5035180;28;20131;-65
2022/07/01 23:53:16;;;;;;;14.43;7.10;;;;;;;20.06;64.02;102050.78;5053210;28;20032;-67
2022/07/01 23:55:42;;;;;;;14.50;7.35;;;;;;;20.05;64.14;102055.38;5053151;28;20067;-66
2022/07/01 23:58:07;;;;;;;17.63;7.97;;;;;;;20.06;63.55;102051.63;5053096;28;20040;-66
